Lairdsville, Pennsylvania
Current Conditions -  °F | °C
As of 5:54 PM on Friday 31 Oct 2014 (Local Time) from KIPT Reporting Station
Overcast Overcast  
Wind Chill: 47°   Ceiling: 6500
Heat Index: 49°   Visibility: 10mi
Dew Point: 33°   Wind: 5mph
Humidity: 54%   Direction: 300°WNW
Pressure: 29.88"   Gusts: NA
Location:  41.23°N, 76.61°W
Report Text: KIPT 312154Z 30004KT 10SM OVC065 09/01 A2988 RMK AO2 SLP120 T00940006
Loading
Personal Weather Stations






























Interactive Weather Map
Tropical Storm Tracking
New forecast layout! Learn more

10-Day Weather Forecast

Advertisements
Track Severe Weather on mobile